createdAt,value
2022-08-18T00:01:16.099Z,19.90
2022-08-18T00:03:55.570Z,19.80
2022-08-18T00:06:28.670Z,19.80
2022-08-18T00:08:59.240Z,19.80
2022-08-18T00:11:28.090Z,19.70
2022-08-18T00:14:11.633Z,19.70
2022-08-18T00:16:50.012Z,19.60
2022-08-18T00:19:18.398Z,19.60
2022-08-18T00:21:46.570Z,19.60
2022-08-18T00:24:14.706Z,19.50
2022-08-18T00:26:43.452Z,19.40
2022-08-18T00:29:17.252Z,19.40
2022-08-18T00:31:45.501Z,19.30
2022-08-18T00:34:14.919Z,19.20
2022-08-18T00:36:43.433Z,19.20
2022-08-18T00:39:12.285Z,19.20
2022-08-18T00:41:40.479Z,19.10
2022-08-18T00:44:08.965Z,19.00
2022-08-18T00:46:38.664Z,19.00
2022-08-18T00:49:07.538Z,18.90
2022-08-18T00:51:42.699Z,18.90
2022-08-18T00:54:16.235Z,18.80
2022-08-18T00:56:47.525Z,18.80
2022-08-18T00:59:24.988Z,18.70
2022-08-18T01:01:55.831Z,18.70
2022-08-18T01:04:29.330Z,18.70
2022-08-18T01:07:03.376Z,18.70
2022-08-18T01:09:32.431Z,18.70
2022-08-18T01:12:00.486Z,18.60
2022-08-18T01:14:41.291Z,18.60
2022-08-18T01:17:35.195Z,18.60
2022-08-18T01:20:21.790Z,18.60
2022-08-18T01:22:59.425Z,18.50
2022-08-18T01:25:46.263Z,18.50
2022-08-18T01:28:18.398Z,18.40
2022-08-18T01:30:49.684Z,18.40
2022-08-18T01:33:18.425Z,18.40
2022-08-18T01:35:49.696Z,18.40
2022-08-18T01:38:22.643Z,18.40
2022-08-18T01:41:17.270Z,18.30
2022-08-18T01:43:41.004Z,18.30
2022-08-18T01:46:09.181Z,18.30
2022-08-18T01:48:38.463Z,18.30
2022-08-18T01:51:09.930Z,18.30
2022-08-18T01:53:40.143Z,18.20
2022-08-18T01:56:09.880Z,18.20
2022-08-18T01:58:38.195Z,18.30
2022-08-18T02:01:06.851Z,18.30
2022-08-18T02:03:39.914Z,18.40
2022-08-18T02:06:12.046Z,18.50
2022-08-18T02:08:46.489Z,18.60
2022-08-18T02:11:21.850Z,18.70
2022-08-18T02:13:50.152Z,18.80
2022-08-18T02:16:18.564Z,18.90
2022-08-18T02:18:47.638Z,19.00
2022-08-18T02:21:20.216Z,19.10
2022-08-18T02:23:53.594Z,19.10
2022-08-18T02:26:23.886Z,19.20
2022-08-18T02:28:52.385Z,19.20
2022-08-18T02:31:23.767Z,19.30
2022-08-18T02:33:53.121Z,19.30
2022-08-18T02:36:23.994Z,19.40
2022-08-18T02:38:59.841Z,19.40
2022-08-18T02:41:29.583Z,19.40
2022-08-18T02:43:59.061Z,19.50
2022-08-18T02:46:29.275Z,19.40
2022-08-18T02:49:00.662Z,19.50
2022-08-18T02:51:28.789Z,19.50
2022-08-18T02:53:59.670Z,19.50
2022-08-18T02:56:40.078Z,19.50
2022-08-18T02:59:13.289Z,19.50
2022-08-18T03:01:44.467Z,19.50
2022-08-18T03:04:15.581Z,19.50
2022-08-18T03:06:45.359Z,19.50
2022-08-18T03:09:17.398Z,19.60
2022-08-18T03:11:48.662Z,19.50
2022-08-18T03:14:17.511Z,19.60
2022-08-18T03:16:54.285Z,19.60
2022-08-18T03:19:24.646Z,19.60
2022-08-18T03:21:53.205Z,19.60
2022-08-18T03:24:23.881Z,19.60
2022-08-18T03:26:54.457Z,19.60
2022-08-18T03:29:25.534Z,19.60
2022-08-18T03:31:57.765Z,19.60
2022-08-18T03:34:25.949Z,19.60
2022-08-18T03:36:54.505Z,19.60
2022-08-18T03:39:25.127Z,19.60
2022-08-18T03:41:59.472Z,19.60
2022-08-18T03:44:31.549Z,19.60
2022-08-18T03:47:01.007Z,19.60
2022-08-18T03:49:29.252Z,19.60
2022-08-18T03:52:01.004Z,19.60
2022-08-18T03:54:33.298Z,19.60
2022-08-18T03:57:01.919Z,19.60
2022-08-18T03:59:31.809Z,19.60
2022-08-18T04:02:00.596Z,19.60
2022-08-18T04:04:29.743Z,19.60
2022-08-18T04:07:00.575Z,19.60
2022-08-18T04:09:33.001Z,19.60
2022-08-18T04:12:15.496Z,19.70
2022-08-18T04:14:48.840Z,19.70
2022-08-18T04:17:23.816Z,19.80
2022-08-18T04:19:52.738Z,19.80
2022-08-18T04:22:21.488Z,19.80
2022-08-18T04:24:51.301Z,19.90
2022-08-18T04:27:20.565Z,19.90
2022-08-18T04:29:49.039Z,20.00
2022-08-18T04:32:17.314Z,20.00
2022-08-18T04:34:45.825Z,20.10
2022-08-18T04:37:15.335Z,20.20
2022-08-18T04:39:44.117Z,20.20
2022-08-18T04:42:13.725Z,20.20
2022-08-18T04:44:42.285Z,20.30
2022-08-18T04:47:13.108Z,20.30
2022-08-18T04:49:41.636Z,20.40
2022-08-18T04:52:40.266Z,20.40
2022-08-18T04:55:10.114Z,20.40
2022-08-18T04:57:39.697Z,20.40
2022-08-18T05:00:11.033Z,20.50
2022-08-18T05:02:39.210Z,20.50
2022-08-18T05:05:08.322Z,20.50
2022-08-18T05:07:36.814Z,20.50
2022-08-18T05:10:05.846Z,20.50
2022-08-18T05:12:34.191Z,20.50
2022-08-18T05:15:03.794Z,20.50
2022-08-18T05:17:50.348Z,20.50
2022-08-18T05:20:20.239Z,20.50
2022-08-18T05:22:49.404Z,20.50
2022-08-18T05:25:18.292Z,20.60
2022-08-18T05:27:46.552Z,20.60
2022-08-18T05:30:15.608Z,20.60
2022-08-18T05:32:50.173Z,20.60
2022-08-18T05:35:23.259Z,20.70
2022-08-18T05:38:24.325Z,20.70
2022-08-18T05:41:06.127Z,20.70
2022-08-18T05:43:35.343Z,20.70
2022-08-18T05:46:11.050Z,20.80
2022-08-18T05:48:43.785Z,20.70
2022-08-18T05:51:17.589Z,20.80
2022-08-18T05:54:03.860Z,20.80
2022-08-18T05:56:49.763Z,20.70
2022-08-18T05:59:23.788Z,20.70
2022-08-18T06:01:57.912Z,20.70
2022-08-18T06:04:36.398Z,20.70
2022-08-18T06:07:08.803Z,20.70
2022-08-18T06:09:43.434Z,20.70
2022-08-18T06:12:22.683Z,20.70
2022-08-18T06:14:52.569Z,20.80
2022-08-18T06:17:49.996Z,20.80
2022-08-18T06:20:27.676Z,20.90
2022-08-18T06:23:03.785Z,21.10
2022-08-18T06:25:38.436Z,21.10
2022-08-18T06:28:11.083Z,21.20
2022-08-18T06:30:49.707Z,21.40
2022-08-18T06:33:38.641Z,21.40
2022-08-18T06:36:19.282Z,21.40
2022-08-18T06:39:02.893Z,21.50
2022-08-18T06:41:43.110Z,21.50
2022-08-18T06:44:17.569Z,21.60
2022-08-18T06:46:50.085Z,21.60
2022-08-18T06:49:36.088Z,21.70
2022-08-18T06:52:21.751Z,21.70
2022-08-18T06:54:51.593Z,21.90
2022-08-18T06:57:26.583Z,22.10
2022-08-18T07:00:07.661Z,22.20
2022-08-18T07:02:49.300Z,22.50
2022-08-18T07:05:22.139Z,22.80
2022-08-18T07:08:15.497Z,23.10
2022-08-18T07:10:48.604Z,23.50
2022-08-18T07:13:30.077Z,23.80
2022-08-18T07:16:26.447Z,24.20
2022-08-18T07:19:08.793Z,24.60
2022-08-18T07:21:40.974Z,24.80
2022-08-18T07:24:24.875Z,24.80
2022-08-18T07:27:02.223Z,24.80
2022-08-18T07:29:32.385Z,24.80
2022-08-18T07:32:04.368Z,24.60
2022-08-18T07:34:37.351Z,24.40
2022-08-18T07:37:12.471Z,24.20
2022-08-18T07:39:48.607Z,24.10
2022-08-18T07:42:37.323Z,24.00
2022-08-18T07:45:23.908Z,23.90
2022-08-18T07:48:07.141Z,23.80
2022-08-18T07:50:58.854Z,23.80
2022-08-18T07:53:38.778Z,23.70
2022-08-18T07:56:16.207Z,23.80
2022-08-18T07:58:50.089Z,24.10
2022-08-18T08:01:25.707Z,24.40
2022-08-18T08:04:00.174Z,24.60
2022-08-18T08:06:33.889Z,24.80
2022-08-18T08:09:12.573Z,25.20
2022-08-18T08:11:54.350Z,25.60
2022-08-18T08:14:35.666Z,25.90
2022-08-18T08:17:11.238Z,26.00
2022-08-18T08:20:00.830Z,25.80
2022-08-18T08:22:37.525Z,25.70
2022-08-18T08:25:44.666Z,25.60
2022-08-18T08:28:13.202Z,25.50
2022-08-18T08:30:49.347Z,25.30
2022-08-18T08:33:25.354Z,25.10
2022-08-18T08:36:00.523Z,25.00
2022-08-18T08:38:43.124Z,24.80
2022-08-18T08:41:19.563Z,24.90
2022-08-18T08:43:54.911Z,24.90
2022-08-18T08:46:25.937Z,25.00
2022-08-18T08:49:00.136Z,25.10
2022-08-18T08:51:35.002Z,25.00
2022-08-18T08:54:10.335Z,25.00
2022-08-18T08:56:45.847Z,25.00
2022-08-18T08:59:17.815Z,24.90
2022-08-18T09:01:52.809Z,24.80
2022-08-18T09:04:34.082Z,24.80
2022-08-18T09:07:16.713Z,24.90
2022-08-18T09:10:08.786Z,25.00
2022-08-18T09:12:57.605Z,25.10
2022-08-18T09:15:43.290Z,25.30
2022-08-18T09:18:28.214Z,25.80
2022-08-18T09:21:07.215Z,27.20
2022-08-18T09:23:42.432Z,28.40
2022-08-18T09:26:25.459Z,29.10
2022-08-18T09:28:57.598Z,29.50
2022-08-18T09:31:31.826Z,29.40
2022-08-18T09:34:31.915Z,29.30
2022-08-18T09:37:12.191Z,29.00
2022-08-18T09:40:12.573Z,28.60
2022-08-18T09:45:55.436Z,27.60
2022-08-18T09:48:30.806Z,27.50
2022-08-18T09:51:34.916Z,27.60
2022-08-18T09:54:15.212Z,27.90
2022-08-18T09:57:19.441Z,28.50
2022-08-18T09:59:57.708Z,30.90
2022-08-18T10:03:13.700Z,33.00
2022-08-18T10:06:15.560Z,34.50
2022-08-18T10:09:36.596Z,36.10
2022-08-18T10:12:27.272Z,37.10
2022-08-18T10:15:33.453Z,37.30
2022-08-18T10:18:21.476Z,38.30
2022-08-18T10:21:03.600Z,39.80
2022-08-18T10:24:14.704Z,40.80
2022-08-18T10:27:13.676Z,41.10
2022-08-18T10:29:56.969Z,40.70
2022-08-18T10:32:39.857Z,41.70
2022-08-18T10:35:52.670Z,43.30
2022-08-18T10:38:30.941Z,43.80
2022-08-18T10:41:09.917Z,44.40
2022-08-18T10:46:42.691Z,47.80
2022-08-18T10:49:25.756Z,48.70
2022-08-18T10:52:26.944Z,48.80
2022-08-18T10:55:19.589Z,48.30
2022-08-18T10:58:08.231Z,46.50
2022-08-18T11:00:49.499Z,44.30
2022-08-18T11:03:51.135Z,42.40
2022-08-18T11:06:24.632Z,41.10
2022-08-18T11:11:52.728Z,40.40
2022-08-18T11:15:00.228Z,41.00
2022-08-18T11:17:40.622Z,41.70
2022-08-18T11:20:14.379Z,43.00
2022-08-18T11:22:56.537Z,43.80
2022-08-18T11:25:32.339Z,43.30
2022-08-18T11:28:03.872Z,42.00
2022-08-18T11:30:36.968Z,40.70
2022-08-18T11:33:06.504Z,40.40
2022-08-18T11:35:47.260Z,41.70
2022-08-18T11:38:21.090Z,44.00
2022-08-18T11:41:12.984Z,46.00
2022-08-18T11:43:47.599Z,48.10
2022-08-18T11:46:29.788Z,49.40
2022-08-18T11:49:01.797Z,49.10
2022-08-18T11:51:32.678Z,47.20
2022-08-18T11:54:05.120Z,44.90
2022-08-18T11:56:38.464Z,42.60
2022-08-18T11:59:52.183Z,40.30
2022-08-18T12:02:25.302Z,38.50
2022-08-18T12:05:03.356Z,36.90
2022-08-18T12:07:37.822Z,35.90
2022-08-18T12:10:26.480Z,35.40
2022-08-18T12:12:59.692Z,35.70
2022-08-18T12:15:44.406Z,36.30
2022-08-18T12:18:26.430Z,36.50
2022-08-18T12:20:58.703Z,36.10
2022-08-18T12:23:27.987Z,35.70
2022-08-18T12:26:27.021Z,35.20
2022-08-18T12:29:01.450Z,34.70
2022-08-18T12:31:42.369Z,34.50
2022-08-18T12:34:24.732Z,34.80
2022-08-18T12:36:56.887Z,36.20
2022-08-18T12:39:25.512Z,38.00
2022-08-18T12:41:53.889Z,39.40
2022-08-18T12:44:22.337Z,39.70
2022-08-18T12:46:50.701Z,39.50
2022-08-18T12:49:23.079Z,38.80
2022-08-18T12:51:54.733Z,38.00
2022-08-18T12:54:25.119Z,37.30
2022-08-18T12:56:56.025Z,36.50
2022-08-18T12:59:33.071Z,35.90
2022-08-18T13:02:01.739Z,35.30
2022-08-18T13:04:31.372Z,34.80
2022-08-18T13:07:05.829Z,34.20
2022-08-18T13:09:48.352Z,33.80
2022-08-18T13:12:24.228Z,33.50
2022-08-18T13:14:55.154Z,33.30
2022-08-18T13:17:32.175Z,33.20
2022-08-18T13:20:08.130Z,33.20
2022-08-18T13:22:36.944Z,33.10
2022-08-18T13:25:07.266Z,33.20
2022-08-18T13:27:37.646Z,33.00
2022-08-18T13:30:30.851Z,32.80
2022-08-18T13:33:05.373Z,32.50
2022-08-18T13:35:44.231Z,32.20
2022-08-18T13:38:21.822Z,31.80
2022-08-18T13:40:51.344Z,31.70
2022-08-18T13:43:23.665Z,31.80
2022-08-18T13:45:53.271Z,31.80
2022-08-18T13:48:25.776Z,32.10
2022-08-18T13:50:56.750Z,32.50
2022-08-18T13:53:27.362Z,32.70
2022-08-18T13:55:58.005Z,32.90
2022-08-18T13:58:28.764Z,32.90
2022-08-18T14:01:15.851Z,32.60
2022-08-18T14:03:47.683Z,32.40
2022-08-18T14:06:22.664Z,32.20
2022-08-18T14:08:53.700Z,32.00
2022-08-18T14:11:27.363Z,31.80
2022-08-18T14:13:56.884Z,31.50
2022-08-18T14:16:26.804Z,31.20
2022-08-18T14:19:14.026Z,31.00
2022-08-18T14:22:03.637Z,31.00
2022-08-18T14:24:53.134Z,31.00
2022-08-18T14:27:27.270Z,31.10
2022-08-18T14:30:06.940Z,31.30
2022-08-18T14:32:36.626Z,31.40
2022-08-18T14:35:33.183Z,31.30
2022-08-18T14:38:09.945Z,31.10
2022-08-18T14:40:41.823Z,30.80
2022-08-18T14:43:11.919Z,30.40
2022-08-18T14:45:49.113Z,30.20
2022-08-18T14:48:20.442Z,29.80
2022-08-18T14:50:50.609Z,29.60
2022-08-18T14:53:21.768Z,29.30
2022-08-18T14:55:52.518Z,29.20
2022-08-18T14:58:21.746Z,29.00
2022-08-18T15:00:54.242Z,28.80
2022-08-18T15:03:31.316Z,28.70
2022-08-18T15:06:04.807Z,28.50
2022-08-18T15:08:37.454Z,28.40
2022-08-18T15:11:11.625Z,28.30
2022-08-18T15:13:43.631Z,28.10
2022-08-18T15:16:14.405Z,28.00
2022-08-18T15:18:42.831Z,27.80
2022-08-18T15:21:35.745Z,27.60
2022-08-18T15:24:26.918Z,27.40
2022-08-18T15:27:05.678Z,27.10
2022-08-18T15:29:35.222Z,26.90
2022-08-18T15:32:05.794Z,26.70
2022-08-18T15:34:46.510Z,26.70
2022-08-18T15:37:19.613Z,26.60
2022-08-18T15:39:55.572Z,26.50
2022-08-18T15:42:25.116Z,26.40
2022-08-18T15:44:53.938Z,26.40
2022-08-18T15:47:25.101Z,26.40
2022-08-18T15:49:54.766Z,26.30
2022-08-18T15:52:25.923Z,26.30
2022-08-18T15:55:01.979Z,26.20
2022-08-18T15:57:38.853Z,26.20
2022-08-18T16:00:12.247Z,26.20
2022-08-18T16:02:48.386Z,26.00
2022-08-18T16:05:18.224Z,25.90
2022-08-18T16:07:47.833Z,25.80
2022-08-18T16:10:22.247Z,25.80
2022-08-18T16:12:51.550Z,25.70
2022-08-18T16:15:23.228Z,25.70
2022-08-18T16:17:53.122Z,25.70
2022-08-18T16:20:23.573Z,25.60
2022-08-18T16:22:53.352Z,25.50
2022-08-18T16:25:22.977Z,25.40
2022-08-18T16:27:51.168Z,25.20
2022-08-18T16:30:22.008Z,25.00
2022-08-18T16:32:50.644Z,24.80
2022-08-18T16:35:20.059Z,24.70
2022-08-18T16:37:49.131Z,24.60
2022-08-18T16:40:19.017Z,24.50
2022-08-18T16:42:49.167Z,24.50
2022-08-18T16:45:23.052Z,24.40
2022-08-18T16:47:51.503Z,24.40
2022-08-18T16:50:20.416Z,24.40
2022-08-18T16:52:48.633Z,24.40
2022-08-18T16:55:16.918Z,24.30
2022-08-18T16:58:03.317Z,24.30
2022-08-18T17:00:54.631Z,24.10
2022-08-18T17:03:40.881Z,24.00
2022-08-18T17:06:10.991Z,23.70
2022-08-18T17:08:40.472Z,23.60
2022-08-18T17:11:11.380Z,23.40
2022-08-18T17:13:40.172Z,23.30
2022-08-18T17:16:11.156Z,23.20
2022-08-18T17:18:39.788Z,23.20
2022-08-18T17:21:10.568Z,23.20
2022-08-18T17:23:39.619Z,23.10
2022-08-18T17:26:10.022Z,23.20
2022-08-18T17:28:46.114Z,23.10
2022-08-18T17:31:21.418Z,23.10
2022-08-18T17:33:49.545Z,23.10
2022-08-18T17:36:22.987Z,23.10
2022-08-18T17:38:57.261Z,23.10
2022-08-18T17:41:25.868Z,23.20
2022-08-18T17:43:57.287Z,23.20
2022-08-18T17:46:30.385Z,23.30
2022-08-18T17:49:01.819Z,23.30
2022-08-18T17:51:35.065Z,23.40
2022-08-18T17:54:10.058Z,23.40
2022-08-18T17:56:41.480Z,23.40
2022-08-18T17:59:45.490Z,23.30
2022-08-18T18:02:18.361Z,23.20
2022-08-18T18:04:59.827Z,23.00
2022-08-18T18:07:31.375Z,22.90
2022-08-18T18:10:02.779Z,22.90
2022-08-18T18:12:34.326Z,22.80
2022-08-18T18:15:03.748Z,22.70
2022-08-18T18:17:37.647Z,22.60
2022-08-18T18:20:16.255Z,22.50
2022-08-18T18:22:45.668Z,22.50
2022-08-18T18:25:30.200Z,22.40
2022-08-18T18:28:03.477Z,22.30
2022-08-18T18:30:32.813Z,22.20
2022-08-18T18:33:05.541Z,22.20
2022-08-18T18:35:54.433Z,22.10
2022-08-18T18:38:29.452Z,22.00
2022-08-18T18:41:01.052Z,22.00
2022-08-18T18:43:36.131Z,21.90
2022-08-18T18:46:29.892Z,21.80
2022-08-18T18:49:13.686Z,21.80
2022-08-18T18:51:50.533Z,21.70
2022-08-18T18:54:38.021Z,21.70
2022-08-18T18:57:13.260Z,21.50
2022-08-18T19:02:34.538Z,21.20
2022-08-18T19:05:19.412Z,21.10
2022-08-18T19:08:19.078Z,21.00
2022-08-18T19:10:57.557Z,20.80
2022-08-18T19:13:32.894Z,20.70
2022-08-18T19:16:23.932Z,20.50
2022-08-18T19:19:35.383Z,20.40
2022-08-18T19:22:05.757Z,20.30
2022-08-18T19:24:40.300Z,20.20
2022-08-18T19:27:16.614Z,20.10
2022-08-18T19:29:47.444Z,20.00
2022-08-18T19:32:20.588Z,20.00
2022-08-18T19:34:51.391Z,19.90
2022-08-18T19:37:31.048Z,19.80
2022-08-18T19:40:09.663Z,19.80
2022-08-18T19:42:42.863Z,19.70
2022-08-18T19:45:22.350Z,19.60
2022-08-18T19:47:55.525Z,19.50
2022-08-18T19:50:30.588Z,19.40
2022-08-18T19:53:13.665Z,19.30
2022-08-18T19:56:01.598Z,19.30
2022-08-18T19:59:12.992Z,19.20
2022-08-18T20:01:55.279Z,19.10
2022-08-18T20:04:39.714Z,18.90
2022-08-18T20:07:52.071Z,18.90
2022-08-18T20:10:47.771Z,18.80
2022-08-18T20:13:32.906Z,18.70
2022-08-18T20:16:44.269Z,18.60
2022-08-18T20:19:42.832Z,18.50
2022-08-18T20:22:27.934Z,18.40
2022-08-18T20:24:59.593Z,18.40
2022-08-18T20:27:36.450Z,18.30
2022-08-18T20:30:33.003Z,18.30
2022-08-18T20:33:21.467Z,18.30
2022-08-18T20:36:00.300Z,18.20
2022-08-18T20:38:35.033Z,18.20
2022-08-18T20:41:41.967Z,18.10
2022-08-18T20:44:38.059Z,18.10
2022-08-18T20:47:23.664Z,18.00
2022-08-18T20:50:03.987Z,18.00
2022-08-18T20:52:43.269Z,17.90
2022-08-18T20:55:20.761Z,17.90
2022-08-18T20:57:55.164Z,17.80
2022-08-18T21:00:27.398Z,17.80
2022-08-18T21:02:57.950Z,17.80
2022-08-18T21:05:28.642Z,17.70
2022-08-18T21:08:03.348Z,17.70
2022-08-18T21:10:33.187Z,17.70
2022-08-18T21:13:04.174Z,17.60
2022-08-18T21:15:36.475Z,17.60
2022-08-18T21:18:07.084Z,17.60
2022-08-18T21:20:36.613Z,17.60
2022-08-18T21:23:08.557Z,17.60
2022-08-18T21:25:37.559Z,17.60
2022-08-18T21:28:07.674Z,17.60
2022-08-18T21:30:38.067Z,17.50
2022-08-18T21:33:20.126Z,17.50
2022-08-18T21:35:48.393Z,17.50
2022-08-18T21:38:24.149Z,17.50
2022-08-18T21:40:57.252Z,17.50
2022-08-18T21:43:43.604Z,17.40
2022-08-18T21:46:26.397Z,17.40
2022-08-18T21:48:56.965Z,17.40
2022-08-18T21:51:28.890Z,17.40
2022-08-18T21:53:57.224Z,17.40
2022-08-18T21:56:29.492Z,17.40
2022-08-18T21:59:10.560Z,17.40
2022-08-18T22:01:49.481Z,17.30
2022-08-18T22:04:25.674Z,17.30
2022-08-18T22:06:56.510Z,17.30
2022-08-18T22:09:44.405Z,17.20
2022-08-18T22:12:48.844Z,17.20
2022-08-18T22:15:19.863Z,17.10
2022-08-18T22:17:56.856Z,17.10
2022-08-18T22:20:43.253Z,17.00
2022-08-18T22:23:51.516Z,17.00
2022-08-18T22:26:23.762Z,17.00
2022-08-18T22:28:57.953Z,16.90
2022-08-18T22:31:27.253Z,16.90
2022-08-18T22:33:57.377Z,16.90
2022-08-18T22:36:29.372Z,16.80
2022-08-18T22:38:57.726Z,16.80
2022-08-18T22:41:26.194Z,16.80
2022-08-18T22:43:55.603Z,16.80
2022-08-18T22:46:25.262Z,16.80
2022-08-18T22:48:54.282Z,16.80
2022-08-18T22:51:26.479Z,16.80
2022-08-18T22:53:55.786Z,16.80
2022-08-18T22:56:34.588Z,16.80
2022-08-18T22:59:15.856Z,16.80
2022-08-18T23:01:50.985Z,16.80
2022-08-18T23:04:22.357Z,16.80
2022-08-18T23:06:53.491Z,16.90
2022-08-18T23:09:24.324Z,16.90
2022-08-18T23:11:53.154Z,17.00
2022-08-18T23:14:22.191Z,17.00
2022-08-18T23:16:51.115Z,17.10
2022-08-18T23:19:21.672Z,17.10
2022-08-18T23:21:51.861Z,17.10
2022-08-18T23:24:21.371Z,17.10
2022-08-18T23:26:50.398Z,17.20
2022-08-18T23:29:19.908Z,17.20
2022-08-18T23:31:49.389Z,17.20
2022-08-18T23:34:19.010Z,17.30
2022-08-18T23:36:55.584Z,17.30
2022-08-18T23:39:24.073Z,17.40
2022-08-18T23:41:53.276Z,17.40
2022-08-18T23:44:22.441Z,17.50
2022-08-18T23:46:54.248Z,17.60
2022-08-18T23:49:23.264Z,17.60
2022-08-18T23:51:56.172Z,17.70
2022-08-18T23:54:27.424Z,17.80
2022-08-18T23:56:55.943Z,17.80
2022-08-18T23:59:25.241Z,17.90
